Time;durP1;ratioP1;P1;durP2;ratioP2;P2;SDS_P1;SDS_P2;PMS_P1;PMS_P2;Temp;Humidity;BMP_temperature;BMP_pressure;BME280_temperature;BME280_humidity;BME280_pressure;Samples;Min_cycle;Max_cycle;Signal;HPM_P1;HPM_P2
2021/09/30 00:00:47;;;;;;;6.80;1.45;;;;;;;10.08;92.44;96501.69;5055168;28;20094;-81
2021/09/30 00:03:13;;;;;;;1.70;1.20;;;;;;;10.06;92.57;96498.50;5053515;28;20044;-82
2021/09/30 00:05:40;;;;;;;2.15;1.17;;;;;;;10.09;92.34;96503.28;5049809;28;20052;-82
2021/09/30 00:08:06;;;;;;;2.85;1.58;;;;;;;10.07;92.82;96500.13;5039007;28;20067;-82
2021/09/30 00:10:33;;;;;;;3.33;1.50;;;;;;;10.01;92.18;96501.06;5049298;28;20068;-81
2021/09/30 00:13:18;;;;;;;1.85;1.10;;;;;;;10.01;91.95;96511.56;5039696;28;20400;-81
2021/09/30 00:40:17;;;;;;;3.30;1.40;;;;;;;9.80;92.76;96506.03;5046062;28;20045;-80
2021/09/30 00:45:50;;;;;;;4.07;1.40;;;;;;;9.84;92.24;96509.75;5050974;28;20076;-80
2021/09/30 00:49:05;;;;;;;3.13;1.42;;;;;;;9.77;92.76;96508.31;5043021;28;20414;-81
2021/09/30 01:46:59;;;;;;;3.28;1.40;;;;;;;9.26;94.52;96542.41;5044464;28;20441;-81
2021/09/30 01:52:12;;;;;;;1.73;1.30;;;;;;;9.32;94.41;96551.97;5046848;28;20048;-81
2021/09/30 02:22:53;;;;;;;4.72;1.40;;;;;;;9.10;94.39;96571.03;5049698;28;20048;-80
2021/09/30 02:58:54;;;;;;;4.03;1.50;;;;;;;8.94;93.74;96609.31;5049221;28;20079;-80
2021/09/30 03:01:23;;;;;;;5.03;1.33;;;;;;;8.86;94.10;96606.25;5049169;28;20044;-81
2021/09/30 03:03:51;;;;;;;1.63;1.25;;;;;;;8.81;94.33;96605.09;5047122;28;20506;-81
2021/09/30 03:06:19;;;;;;;5.22;1.30;;;;;;;8.96;94.18;96595.94;5046339;28;20050;-81
2021/09/30 03:08:49;;;;;;;4.95;1.40;;;;;;;8.92;94.62;96607.94;5040826;28;20040;-81
2021/09/30 03:11:16;;;;;;;2.45;1.15;;;;;;;8.97;94.17;96597.56;5049103;28;20048;-81
2021/09/30 03:13:46;;;;;;;4.30;1.30;;;;;;;8.87;94.51;96606.00;5045980;28;20068;-81
2021/09/30 03:23:33;;;;;;;4.15;1.48;;;;;;;8.87;94.80;96618.34;5048345;28;20102;-81
2021/09/30 03:26:00;;;;;;;4.93;1.30;;;;;;;8.74;94.60;96612.31;5046227;28;20059;-81
2021/09/30 03:28:27;;;;;;;4.88;1.25;;;;;;;8.83;94.58;96624.06;5046807;28;20060;-81
2021/09/30 03:30:55;;;;;;;4.28;1.45;;;;;;;8.80;94.48;96619.25;5030296;28;20053;-80
2021/09/30 03:33:23;;;;;;;3.42;1.33;;;;;;;8.81;95.21;96620.06;5036062;28;20041;-81
2021/09/30 03:35:49;;;;;;;6.28;2.55;;;;;;;8.81;94.42;96620.84;5027206;28;20049;-80
2021/09/30 03:38:15;;;;;;;5.93;1.30;;;;;;;8.81;94.17;96615.59;5036592;28;20049;-81
2021/09/30 03:40:42;;;;;;;4.45;1.58;;;;;;;8.76;94.82;96623.34;5048312;28;20051;-80
2021/09/30 03:43:09;;;;;;;2.92;1.45;;;;;;;8.76;94.92;96623.34;5046270;28;20129;-80
2021/09/30 03:45:36;;;;;;;3.83;1.40;;;;;;;8.75;94.54;96621.78;5046600;28;20045;-79
2021/09/30 03:48:01;;;;;;;1.75;1.20;;;;;;;8.72;95.93;96624.88;5035329;28;20037;-80
2021/09/30 03:50:34;;;;;;;2.10;1.27;;;;;;;8.75;96.84;96616.53;5047837;28;20522;-80
2021/09/30 03:53:09;;;;;;;3.88;1.73;;;;;;;8.77;95.37;96614.47;5048124;28;20041;-80
2021/09/30 04:00:57;;;;;;;3.70;1.50;;;;;;;8.69;95.78;96621.88;5031844;28;20056;-81
2021/09/30 04:03:23;;;;;;;3.67;1.40;;;;;;;8.69;95.56;96621.88;5036841;28;20576;-80
2021/09/30 04:05:48;;;;;;;1.92;1.08;;;;;;;8.64;95.61;96619.97;5050150;28;20068;-80
2021/09/30 04:08:14;;;;;;;2.88;1.33;;;;;;;8.56;95.45;96630.78;5044526;28;20504;-80
2021/09/30 04:10:40;;;;;;;2.58;1.20;;;;;;;8.54;96.26;96630.25;5050356;28;20119;-80
2021/09/30 04:13:05;;;;;;;3.13;1.50;;;;;;;8.36;96.57;96624.03;5044907;28;20041;-80
2021/09/30 04:15:31;;;;;;;6.70;1.42;;;;;;;8.44;96.27;96631.59;5045666;28;20103;-81
2021/09/30 04:17:56;;;;;;;2.42;1.10;;;;;;;8.40;97.13;96634.88;5046243;28;20121;-80
2021/09/30 04:20:23;;;;;;;3.90;1.50;;;;;;;8.44;96.05;96623.72;5047804;28;20495;-80
2021/09/30 04:22:48;;;;;;;5.70;1.50;;;;;;;8.48;96.37;96637.97;5033415;28;20037;-80
2021/09/30 04:25:14;;;;;;;4.03;1.30;;;;;;;8.54;95.62;96643.34;5045985;28;20430;-81
2021/09/30 04:27:39;;;;;;;4.53;1.52;;;;;;;8.34;96.46;96636.56;5031488;28;20825;-81
2021/09/30 04:30:06;;;;;;;2.60;1.25;;;;;;;8.30;96.50;96640.66;5047508;28;20041;-80
2021/09/30 04:32:32;;;;;;;2.65;1.30;;;;;;;8.24;96.31;96647.63;5039262;28;20053;-80
2021/09/30 04:34:57;;;;;;;2.63;1.40;;;;;;;8.20;96.75;96645.69;5042022;28;20045;-81
2021/09/30 04:37:25;;;;;;;6.13;1.75;;;;;;;8.36;96.29;96654.72;5034562;28;20041;-81
2021/09/30 04:39:51;;;;;;;5.20;1.20;;;;;;;8.29;96.43;96653.00;5044553;28;20049;-81
2021/09/30 04:42:17;;;;;;;3.88;1.40;;;;;;;8.35;96.05;96653.91;5047575;28;20499;-81
2021/09/30 04:44:42;;;;;;;2.45;1.23;;;;;;;8.24;96.27;96646.84;5042522;28;20040;-80
2021/09/30 04:47:08;;;;;;;7.53;1.40;;;;;;;8.29;96.27;96645.13;5049448;28;20128;-81
2021/09/30 04:49:33;;;;;;;5.38;1.50;;;;;;;8.31;96.23;96647.53;5050894;28;20041;-81
2021/09/30 04:51:59;;;;;;;4.75;1.38;;;;;;;8.25;95.77;96643.19;5047798;28;20052;-81
2021/09/30 04:54:24;;;;;;;4.57;1.33;;;;;;;8.36;95.33;96654.72;5033735;28;20116;-80
2021/09/30 04:56:50;;;;;;;4.97;1.50;;;;;;;8.34;95.33;96654.94;5042859;28;20037;-81
2021/09/30 04:59:16;;;;;;;4.18;1.30;;;;;;;8.34;96.05;96657.56;5045399;28;20085;-81
2021/09/30 05:01:41;;;;;;;3.40;1.48;;;;;;;8.28;96.47;96658.47;5047231;28;20175;-81
2021/09/30 05:04:07;;;;;;;5.82;1.40;;;;;;;8.31;95.89;96642.28;5051377;28;20044;-81
2021/09/30 05:06:32;;;;;;;8.63;1.80;;;;;;;8.30;95.27;96651.97;5067065;28;20022;-80
2021/09/30 05:08:59;;;;;;;4.20;1.30;;;;;;;8.23;95.97;96645.22;5076836;28;20025;-79
2021/09/30 05:11:31;;;;;;;4.07;1.48;;;;;;;8.12;96.08;96644.97;5077754;28;20051;-79
2021/09/30 05:13:58;;;;;;;4.40;1.60;;;;;;;8.30;96.56;96651.16;5079593;28;20050;-79
2021/09/30 05:16:24;;;;;;;4.03;1.70;;;;;;;8.27;96.25;96656.88;5068914;28;20044;-78
2021/09/30 05:18:53;;;;;;;5.25;1.50;;;;;;;8.28;96.07;96650.59;5077434;28;20032;-77
2021/09/30 05:21:19;;;;;;;4.07;1.50;;;;;;;8.21;97.11;96652.53;5080076;28;20045;-78
2021/09/30 05:23:44;;;;;;;4.85;1.35;;;;;;;8.34;96.87;96657.56;5080209;28;20040;-78
2021/09/30 05:26:10;;;;;;;2.97;1.40;;;;;;;8.21;97.42;96655.16;5059775;28;20029;-78
2021/09/30 05:28:36;;;;;;;2.95;1.67;;;;;;;8.28;96.24;96659.25;5070036;28;20084;-77
2021/09/30 05:31:02;;;;;;;3.75;1.40;;;;;;;8.24;96.44;96659.94;5069955;28;20043;-79
2021/09/30 05:33:28;;;;;;;2.70;1.50;;;;;;;8.13;97.24;96662.31;5067433;28;20055;-79
2021/09/30 05:35:54;;;;;;;3.60;1.60;;;;;;;8.22;96.96;96665.41;5057449;28;20974;-80
2021/09/30 05:38:20;;;;;;;5.22;1.80;;;;;;;8.22;96.57;96660.16;5069134;28;20034;-81
2021/09/30 05:40:48;;;;;;;2.33;1.35;;;;;;;8.22;97.05;96654.13;5031082;28;20076;-81
2021/09/30 05:43:21;;;;;;;3.90;1.40;;;;;;;8.24;96.46;96652.06;5046229;28;20049;-81
2021/09/30 05:45:52;;;;;;;2.67;1.35;;;;;;;8.32;96.45;96663.03;5042706;28;20049;-80
2021/09/30 05:48:18;;;;;;;3.05;1.50;;;;;;;8.27;96.17;96652.41;5047347;28;20068;-80
2021/09/30 05:50:43;;;;;;;4.97;1.58;;;;;;;8.25;96.79;96658.94;5050397;28;20108;-81
2021/09/30 05:53:09;;;;;;;2.78;1.45;;;;;;;8.23;96.25;96658.34;5050790;28;20036;-81
2021/09/30 05:55:35;;;;;;;10.88;1.70;;;;;;;8.22;96.67;96659.38;5049334;28;20099;-80
2021/09/30 05:58:00;;;;;;;8.65;1.60;;;;;;;8.28;96.53;96666.34;5049453;28;20487;-81
2021/09/30 06:00:41;;;;;;;3.47;1.58;;;;;;;8.17;96.54;96661.88;5049975;28;20037;-80
2021/09/30 06:16:35;;;;;;;2.78;1.50;;;;;;;8.28;96.58;96666.34;5039859;28;20041;-82
2021/09/30 06:19:01;;;;;;;5.35;1.60;;;;;;;8.17;97.50;96662.66;5050739;28;20049;-80
2021/09/30 06:21:27;;;;;;;3.92;1.60;;;;;;;8.15;97.68;96665.50;5044532;28;20052;-80
2021/09/30 06:23:53;;;;;;;2.95;1.60;;;;;;;8.17;96.92;96667.13;5040833;28;20041;-80
2021/09/30 06:26:19;;;;;;;3.55;1.60;;;;;;;8.14;97.88;96669.16;5049312;28;20063;-80
2021/09/30 06:28:44;;;;;;;3.90;1.70;;;;;;;8.22;98.12;96665.41;5049653;28;20037;-80
2021/09/30 06:31:10;;;;;;;4.32;1.63;;;;;;;8.26;96.99;96668.38;5044422;28;20045;-81
2021/09/30 06:33:36;;;;;;;6.00;1.52;;;;;;;8.24;96.78;96673.06;5047824;28;20418;-80
2021/09/30 06:36:02;;;;;;;5.53;1.75;;;;;;;8.25;97.06;96669.41;5045422;28;20044;-80
2021/09/30 06:38:27;;;;;;;3.70;1.63;;;;;;;8.33;96.23;96666.44;5044209;28;20044;-80
2021/09/30 06:40:53;;;;;;;5.13;1.98;;;;;;;8.41;95.96;96668.75;5047971;28;20041;-80
2021/09/30 06:43:18;;;;;;;2.83;1.50;;;;;;;8.56;95.52;96680.66;5049410;28;20051;-80
2021/09/30 06:45:44;;;;;;;5.45;1.70;;;;;;;8.59;94.53;96675.75;5036624;28;20092;-79
2021/09/30 06:48:09;;;;;;;7.68;1.70;;;;;;;8.64;93.81;96688.19;5041014;28;20041;-78
2021/09/30 06:50:36;;;;;;;5.38;1.85;;;;;;;8.60;93.47;96677.34;5048476;28;20534;-79
2021/09/30 06:53:04;;;;;;;7.85;2.00;;;;;;;8.66;92.07;96675.63;5047588;28;20110;-81
2021/09/30 06:55:31;;;;;;;4.18;1.80;;;;;;;8.60;92.28;96671.28;5046591;28;20094;-82
2021/09/30 06:57:56;;;;;;;6.63;1.75;;;;;;;8.61;92.78;96678.94;5051227;28;20045;-82
2021/09/30 07:00:22;;;;;;;4.28;1.83;;;;;;;8.68;91.90;96678.84;5045223;28;20102;-81
2021/09/30 07:02:48;;;;;;;4.40;1.75;;;;;;;8.80;92.49;96691.94;5046531;28;20040;-81
2021/09/30 07:05:15;;;;;;;5.00;1.50;;;;;;;8.87;90.92;96689.22;5047255;28;20383;-82
2021/09/30 07:07:41;;;;;;;2.70;1.60;;;;;;;8.83;91.59;96687.06;5045890;28;20041;-81
2021/09/30 07:10:10;;;;;;;3.88;1.77;;;;;;;8.76;91.34;96690.81;5044297;28;20057;-81
2021/09/30 07:12:36;;;;;;;4.20;1.90;;;;;;;8.80;90.19;96691.94;5041590;28;20471;-80
2021/09/30 07:15:03;;;;;;;4.72;1.50;;;;;;;8.77;89.01;96687.94;5048030;28;20454;-82
2021/09/30 07:17:29;;;;;;;4.30;1.70;;;;;;;8.76;91.19;96688.97;5039293;28;20067;-79
2021/09/30 07:19:57;;;;;;;5.03;1.52;;;;;;;8.89;89.07;96690.56;5043256;28;20048;-80
2021/09/30 07:22:24;;;;;;;2.95;1.40;;;;;;;8.89;87.29;96685.31;5049800;28;20044;-82
2021/09/30 07:24:49;;;;;;;4.20;1.95;;;;;;;9.06;89.20;96685.41;5051122;28;20112;-81
2021/09/30 07:27:15;;;;;;;4.60;1.50;;;;;;;9.07;87.78;96688.88;5051693;28;20048;-81
2021/09/30 07:29:40;;;;;;;2.85;1.48;;;;;;;9.03;87.16;96691.13;5043768;28;20041;-81
2021/09/30 07:32:06;;;;;;;8.68;1.60;;;;;;;9.10;86.06;96691.81;5050929;28;20049;-82
2021/09/30 07:34:33;;;;;;;6.15;1.70;;;;;;;9.05;85.62;96694.34;5053329;28;20044;-82
2021/09/30 07:37:01;;;;;;;3.17;1.73;;;;;;;9.13;86.17;96701.84;5032744;28;20045;-82
2021/09/30 07:39:28;;;;;;;7.18;1.60;;;;;;;9.22;86.78;96698.88;5029244;28;20049;-83
2021/09/30 07:41:53;;;;;;;4.50;1.40;;;;;;;9.13;84.33;96699.22;5048603;28;20043;-83
2021/09/30 07:44:19;;;;;;;6.35;1.67;;;;;;;9.27;83.38;96696.38;5033538;28;20045;-83
2021/09/30 07:46:47;;;;;;;5.20;1.67;;;;;;;9.66;81.81;96699.25;5040097;28;20049;-84
2021/09/30 07:49:12;;;;;;;8.48;1.73;;;;;;;9.58;84.32;96696.97;5046915;28;20468;-83
2021/09/30 07:51:39;;;;;;;3.70;1.60;;;;;;;9.64;82.29;96711.78;5038799;28;20047;-83
2021/09/30 07:54:06;;;;;;;5.88;2.10;;;;;;;9.71;81.07;96696.69;5038899;28;20056;-82
2021/09/30 07:56:33;;;;;;;5.57;1.50;;;;;;;9.73;81.77;96697.28;5042269;28;20048;-82
2021/09/30 07:58:59;;;;;;;2.15;1.25;;;;;;;9.71;81.80;96696.69;5047657;28;20045;-82
2021/09/30 08:01:25;;;;;;;7.55;1.88;;;;;;;9.83;80.36;96700.09;5042945;28;20056;-82
2021/09/30 08:03:51;;;;;;;6.15;1.80;;;;;;;9.84;79.04;96706.94;5047191;28;20044;-82
2021/09/30 08:06:18;;;;;;;4.55;1.60;;;;;;;9.97;79.49;96705.06;5039272;28;20048;-80
2021/09/30 08:08:45;;;;;;;3.72;1.40;;;;;;;10.19;78.46;96698.09;5045683;28;20041;-81
2021/09/30 08:11:10;;;;;;;4.25;1.58;;;;;;;10.10;76.60;96694.25;5045543;28;20037;-81
2021/09/30 08:13:36;;;;;;;5.18;1.60;;;;;;;10.20;74.17;96704.94;5048421;28;20045;-80
2021/09/30 08:16:02;;;;;;;4.53;1.70;;;;;;;10.22;75.69;96697.59;5043107;28;20521;-81
2021/09/30 08:18:27;;;;;;;5.13;1.50;;;;;;;10.30;75.45;96698.25;5043116;28;20041;-81
2021/09/30 08:20:54;;;;;;;4.93;1.60;;;;;;;10.43;75.06;96703.25;5041113;28;20041;-81
2021/09/30 08:23:20;;;;;;;5.70;1.98;;;;;;;10.45;74.52;96706.44;5046654;28;20033;-81
2021/09/30 08:25:47;;;;;;;4.22;1.70;;;;;;;10.46;75.58;96705.41;5044180;28;20047;-80
2021/09/30 08:28:13;;;;;;;3.47;1.40;;;;;;;10.50;74.61;96693.38;5049438;28;20396;-82
2021/09/30 08:30:40;;;;;;;8.27;2.28;;;;;;;10.63;76.60;96701.97;5052309;28;20174;-80
2021/09/30 08:33:10;;;;;;;5.43;1.63;;;;;;;10.70;74.17;96697.34;5055214;28;20498;-80
2021/09/30 08:35:37;;;;;;;5.95;1.30;;;;;;;10.81;70.84;96704.34;5050405;28;20041;-79
2021/09/30 08:38:04;;;;;;;6.70;1.60;;;;;;;10.70;70.45;96697.34;5040324;28;20041;-79
2021/09/30 08:40:30;;;;;;;6.80;1.70;;;;;;;10.73;71.11;96702.13;5044314;28;20047;-78
2021/09/30 08:42:57;;;;;;;6.82;1.60;;;;;;;10.55;73.18;96701.31;5049477;28;20458;-81
2021/09/30 08:45:23;;;;;;;3.00;1.40;;;;;;;10.67;73.01;96703.88;5051555;28;20047;-80
2021/09/30 08:48:05;;;;;;;10.55;1.60;;;;;;;10.56;73.00;96700.28;5051334;28;20064;-80
2021/09/30 08:50:38;;;;;;;3.28;1.40;;;;;;;10.91;71.39;96699.22;5052614;28;20048;-81
2021/09/30 08:53:06;;;;;;;10.75;1.70;;;;;;;10.94;70.16;96697.16;5041136;28;20132;-78
2021/09/30 08:55:31;;;;;;;4.00;1.35;;;;;;;10.95;70.81;96694.28;5037120;28;20045;-78
2021/09/30 08:58:02;;;;;;;5.25;1.38;;;;;;;11.21;72.94;96692.78;5031619;28;20577;-78
2021/09/30 09:00:28;;;;;;;4.22;1.27;;;;;;;11.17;68.92;96696.94;5044742;28;20122;-80
2021/09/30 09:02:54;;;;;;;2.65;1.50;;;;;;;11.22;69.63;96694.38;5050573;28;20041;-80
2021/09/30 09:05:20;;;;;;;6.47;1.63;;;;;;;11.20;71.62;96707.00;5047983;28;20048;-80
2021/09/30 09:08:04;;;;;;;10.32;1.30;;;;;;;10.87;67.77;96703.38;5049536;28;20406;-80
2021/09/30 09:10:37;;;;;;;3.30;1.60;;;;;;;10.89;68.33;96711.84;5035576;28;20045;-79
2021/09/30 09:13:02;;;;;;;2.78;1.20;;;;;;;10.69;68.64;96711.56;5060148;28;20045;-80
2021/09/30 09:15:57;;;;;;;4.00;1.48;;;;;;;10.49;68.99;96699.66;5056468;28;20041;-80
2021/09/30 09:18:28;;;;;;;7.20;1.40;;;;;;;10.94;68.84;96703.22;5059487;28;20059;-80
2021/09/30 09:21:02;;;;;;;4.28;1.50;;;;;;;10.95;71.18;96704.00;5023517;28;20069;-79
2021/09/30 09:23:30;;;;;;;6.03;1.08;;;;;;;10.97;66.69;96699.31;5054171;28;20033;-79
2021/09/30 09:26:14;;;;;;;2.55;1.23;;;;;;;11.13;64.99;96706.38;5046618;28;20049;-80
2021/09/30 09:29:02;;;;;;;4.80;1.27;;;;;;;11.15;65.34;96699.03;5053641;28;20041;-80
2021/09/30 09:31:30;;;;;;;3.75;1.15;;;;;;;11.25;66.61;96693.88;5053886;28;20102;-80
2021/09/30 09:33:56;;;;;;;4.57;1.10;;;;;;;11.33;63.31;96686.59;5034432;28;20092;-80
2021/09/30 09:36:26;;;;;;;2.97;1.23;;;;;;;11.50;63.53;96695.25;5051013;28;20525;-83
2021/09/30 09:38:54;;;;;;;2.10;1.15;;;;;;;11.63;62.91;96693.28;5054729;28;20919;-80
2021/09/30 09:41:35;;;;;;;4.05;1.20;;;;;;;11.88;63.53;96685.66;5056821;28;20045;-80
2021/09/30 09:44:04;;;;;;;3.17;1.05;;;;;;;12.11;62.92;96689.03;5053670;28;20061;-79
2021/09/30 09:46:35;;;;;;;2.97;1.33;;;;;;;12.42;61.59;96694.59;5035122;28;20078;-78
2021/09/30 09:49:04;;;;;;;4.05;1.30;;;;;;;12.83;62.24;96689.63;5035994;28;20044;-79
2021/09/30 09:51:39;;;;;;;6.40;1.50;;;;;;;13.27;62.33;96686.69;5052952;28;20052;-79
2021/09/30 09:54:26;;;;;;;3.17;1.30;;;;;;;13.45;58.23;96684.69;5047502;28;20041;-79
2021/09/30 09:56:51;;;;;;;3.38;1.40;;;;;;;13.40;59.32;96688.09;5044355;28;20052;-78
2021/09/30 09:59:35;;;;;;;3.97;1.35;;;;;;;14.08;57.89;96676.66;5052740;28;20045;-79
2021/09/30 10:02:00;;;;;;;6.95;1.60;;;;;;;15.27;56.11;96673.91;5051093;28;20113;-79
2021/09/30 10:04:27;;;;;;;3.88;1.27;;;;;;;14.73;55.11;96670.84;5042388;28;20499;-79
2021/09/30 10:06:53;;;;;;;2.38;1.30;;;;;;;14.37;58.76;96674.28;5043809;28;20049;-78
2021/09/30 10:09:19;;;;;;;4.80;1.40;;;;;;;14.41;57.20;96663.16;5046960;28;20045;-77
2021/09/30 10:11:44;;;;;;;3.47;1.58;;;;;;;14.59;55.88;96665.28;5055731;28;20033;-78
2021/09/30 10:14:10;;;;;;;5.05;1.30;;;;;;;13.65;55.91;96670.75;5053957;28;20074;-79
2021/09/30 10:16:37;;;;;;;3.45;1.38;;;;;;;13.48;59.26;96668.31;5048183;28;20037;-78
2021/09/30 10:19:07;;;;;;;5.40;1.60;;;;;;;13.04;57.24;96658.81;5032604;28;20072;-78
2021/09/30 10:21:34;;;;;;;2.67;1.20;;;;;;;13.53;55.71;96660.38;5043434;28;20098;-79
2021/09/30 10:24:04;;;;;;;4.22;1.40;;;;;;;13.95;55.22;96654.16;5050432;28;20040;-80
2021/09/30 10:26:33;;;;;;;4.68;1.20;;;;;;;14.56;51.92;96644.63;5050580;28;20045;-79
2021/09/30 10:28:59;;;;;;;3.33;1.30;;;;;;;14.30;51.58;96644.63;5045442;28;20045;-76
2021/09/30 10:31:29;;;;;;;4.30;1.40;;;;;;;15.68;48.71;96642.69;5044712;28;20045;-75
2021/09/30 10:33:59;;;;;;;1.83;1.10;;;;;;;14.79;52.33;96642.50;5046256;28;20040;-78
2021/09/30 10:36:32;;;;;;;3.55;1.20;;;;;;;15.21;48.41;96633.34;5051843;28;20044;-77
2021/09/30 10:39:15;;;;;;;6.57;1.33;;;;;;;15.59;50.87;96644.34;5053054;28;20041;-79
2021/09/30 10:41:41;;;;;;;3.90;1.30;;;;;;;15.15;48.64;96629.94;5056493;28;20477;-80
2021/09/30 10:44:16;;;;;;;4.75;1.10;;;;;;;15.80;49.78;96633.63;5057827;28;20098;-80
2021/09/30 10:46:42;;;;;;;;;;;;;;;15.38;49.29;96641.78;5049424;28;20041;-80
2021/09/30 10:49:31;;;;;;;5.50;2.05;;;;;;;17.03;49.13;96621.97;5047855;28;19929;-80
2021/09/30 10:52:19;;;;;;;4.38;1.30;;;;;;;18.24;42.95;96631.56;5050259;28;20037;-78
2021/09/30 10:54:54;;;;;;;5.18;1.20;;;;;;;17.73;45.27;96633.88;5051393;28;20048;-79
2021/09/30 10:57:35;;;;;;;2.33;0.90;;;;;;;17.93;43.54;96626.69;5049648;28;20800;-80
2021/09/30 11:00:11;;;;;;;3.28;1.20;;;;;;;18.23;41.21;96627.31;5046818;28;20522;-78
2021/09/30 11:03:02;;;;;;;1.73;1.17;;;;;;;18.61;42.67;96619.22;5049609;28;20044;-79
2021/09/30 11:05:33;;;;;;;4.88;1.30;;;;;;;17.56;41.19;96622.94;5039801;28;20518;-79
2021/09/30 11:08:17;;;;;;;9.43;1.38;;;;;;;17.57;42.36;96627.97;5048225;28;20048;-77
2021/09/30 11:11:01;;;;;;;4.28;1.35;;;;;;;16.07;46.65;96618.03;5049183;28;20048;-84
2021/09/30 11:13:49;;;;;;;3.50;1.30;;;;;;;16.17;46.78;96611.06;5036820;28;20495;-80
2021/09/30 11:16:16;;;;;;;4.13;1.23;;;;;;;15.49;49.58;96607.25;5042371;28;20041;-79
2021/09/30 11:18:54;;;;;;;2.65;1.30;;;;;;;15.67;47.76;96606.59;5048874;28;20049;-80
2021/09/30 11:21:32;;;;;;;2.53;1.25;;;;;;;15.40;49.60;96594.56;5050075;28;20041;-80
2021/09/30 11:24:08;;;;;;;7.25;1.35;;;;;;;15.25;48.65;96598.06;5045518;28;20427;-79
2021/09/30 11:26:49;;;;;;;3.40;1.25;;;;;;;15.99;48.22;96599.25;5046867;28;20044;-81
2021/09/30 11:29:26;;;;;;;4.55;1.38;;;;;;;15.46;50.10;96597.16;5046066;28;20710;-80
2021/09/30 11:31:58;;;;;;;3.33;1.42;;;;;;;15.37;48.62;96600.41;5042284;28;20052;-80
2021/09/30 11:34:31;;;;;;;5.15;1.50;;;;;;;14.97;51.76;96599.53;5049267;28;20040;-80
2021/09/30 11:36:59;;;;;;;4.30;1.40;;;;;;;15.23;49.69;96588.81;5040453;28;20045;-81
2021/09/30 11:39:34;;;;;;;5.05;1.35;;;;;;;15.70;50.22;96582.19;5039694;28;20115;-81
2021/09/30 11:42:01;;;;;;;5.75;1.55;;;;;;;15.39;51.61;96598.28;5046170;28;20719;-81
2021/09/30 11:44:26;;;;;;;4.97;1.80;;;;;;;16.18;49.29;96591.44;5043304;28;20045;-81
2021/09/30 11:46:55;;;;;;;5.15;1.95;;;;;;;15.05;49.67;96588.34;5043374;28;20104;-81
2021/09/30 11:49:21;;;;;;;3.53;1.40;;;;;;;15.72;51.77;96580.03;5043002;28;20048;-81
2021/09/30 11:51:55;;;;;;;2.92;1.10;;;;;;;16.51;45.50;96573.84;5049367;28;20044;-81
2021/09/30 11:54:39;;;;;;;3.30;1.25;;;;;;;16.25;45.93;96570.66;5043790;28;20051;-81
2021/09/30 11:57:05;;;;;;;3.30;1.43;;;;;;;17.26;45.73;96569.03;5036925;28;20107;-81
2021/09/30 11:59:32;;;;;;;3.17;1.52;;;;;;;16.47;45.54;96561.41;5048450;28;20045;-81
2021/09/30 12:02:05;;;;;;;2.75;1.40;;;;;;;17.40;43.48;96561.16;5034534;28;20449;-81
2021/09/30 12:04:51;;;;;;;3.90;1.35;;;;;;;18.65;42.30;96553.56;5050673;28;20091;-81
2021/09/30 12:07:20;;;;;;;5.75;1.30;;;;;;;17.72;43.04;96557.75;5036587;28;20041;-81
2021/09/30 12:09:54;;;;;;;6.40;1.50;;;;;;;16.72;43.46;96557.69;5052130;28;20221;-81
2021/09/30 12:12:27;;;;;;;3.10;1.70;;;;;;;17.29;46.53;96560.50;5038832;28;20033;-81
2021/09/30 12:14:55;;;;;;;4.25;1.50;;;;;;;17.87;45.08;96547.94;5042792;28;20099;-82
2021/09/30 12:17:21;;;;;;;8.05;1.42;;;;;;;16.76;46.36;96543.53;5050628;28;20052;-81
2021/09/30 12:19:51;;;;;;;3.30;1.48;;;;;;;15.40;48.11;96538.88;5051052;28;20041;-81
2021/09/30 12:22:24;;;;;;;5.57;1.60;;;;;;;15.11;50.99;96537.97;5050020;28;20122;-81
2021/09/30 12:24:51;;;;;;;3.75;2.00;;;;;;;14.92;48.95;96538.56;5041942;28;20045;-81
2021/09/30 12:27:18;;;;;;;3.50;1.35;;;;;;;15.07;48.28;96527.91;5052294;28;20628;-81
2021/09/30 12:29:50;;;;;;;3.17;1.40;;;;;;;14.83;48.70;96537.56;5052663;28;20095;-81
2021/09/30 12:32:19;;;;;;;5.28;1.35;;;;;;;14.75;52.02;96535.47;5049622;28;20044;-81
2021/09/30 12:34:59;;;;;;;5.05;1.40;;;;;;;15.05;49.70;96522.06;5049915;28;20040;-81
2021/09/30 12:37:30;;;;;;;3.45;1.35;;;;;;;14.77;50.74;96528.03;5048201;28;20581;-81
2021/09/30 12:40:09;;;;;;;4.72;1.15;;;;;;;14.61;49.17;96509.53;5051904;28;20177;-81
2021/09/30 12:42:35;;;;;;;4.22;1.50;;;;;;;15.06;49.92;96505.09;5047867;28;20041;-81
2021/09/30 12:45:03;;;;;;;5.57;1.60;;;;;;;16.32;48.86;96501.25;5050201;28;20033;-81
2021/09/30 12:47:28;;;;;;;3.78;1.40;;;;;;;16.58;46.32;96499.13;5048800;28;20063;-80
2021/09/30 12:50:06;;;;;;;3.53;1.48;;;;;;;17.20;46.46;96482.44;5050712;28;20483;-80
2021/09/30 12:52:32;;;;;;;3.70;1.30;;;;;;;18.69;43.44;96477.22;5048889;28;20487;-80
2021/09/30 12:54:57;;;;;;;3.75;1.52;;;;;;;18.05;42.94;96480.56;5045043;28;20057;-80
2021/09/30 12:57:32;;;;;;;4.68;1.33;;;;;;;19.07;41.55;96477.00;5048251;28;20119;-80
2021/09/30 13:00:12;;;;;;;4.57;1.30;;;;;;;19.46;42.29;96467.59;5049746;28;20047;-81
2021/09/30 13:02:38;;;;;;;5.88;1.45;;;;;;;19.87;42.53;96474.66;5051598;28;20479;-81
2021/09/30 13:05:05;;;;;;;6.25;1.30;;;;;;;20.78;36.99;96455.69;5050037;28;20041;-82
2021/09/30 13:07:49;;;;;;;4.50;1.10;;;;;;;19.90;38.40;96460.69;5043827;28;20055;-81
2021/09/30 13:10:17;;;;;;;5.75;1.30;;;;;;;19.20;37.54;96448.72;5046293;28;20040;-80
2021/09/30 13:13:07;;;;;;;4.07;1.50;;;;;;;19.45;39.37;96455.34;5049845;28;20045;-83
2021/09/30 13:15:35;;;;;;;5.35;1.50;;;;;;;18.93;39.16;96454.91;5048657;28;20040;-81
2021/09/30 13:18:02;;;;;;;7.45;1.50;;;;;;;19.49;38.12;96444.84;5049202;28;20037;-82
2021/09/30 13:20:28;;;;;;;5.05;1.40;;;;;;;19.60;36.43;96445.41;5050957;28;20072;-85
2021/09/30 13:22:53;;;;;;;4.05;1.50;;;;;;;19.09;38.22;96442.81;5050767;28;20497;-84
2021/09/30 13:25:20;;;;;;;3.70;1.27;;;;;;;18.93;38.13;96452.25;5042138;28;20493;-81
2021/09/30 13:27:48;;;;;;;3.63;1.40;;;;;;;18.85;38.73;96448.41;5044564;28;20045;-82
2021/09/30 13:30:18;;;;;;;3.65;1.27;;;;;;;18.61;40.68;96443.28;5049328;28;20052;-82
2021/09/30 13:32:45;;;;;;;3.58;1.45;;;;;;;18.52;38.38;96445.88;5046548;28;20064;-82
2021/09/30 13:35:12;;;;;;;3.40;1.58;;;;;;;18.52;39.78;96445.88;5050948;28;20064;-82
2021/09/30 13:37:38;;;;;;;5.65;1.50;;;;;;;18.08;40.83;96441.91;5042434;28;20090;-82
2021/09/30 13:40:07;;;;;;;4.43;1.50;;;;;;;17.97;40.86;96430.63;5050094;28;20056;-82
2021/09/30 13:42:34;;;;;;;5.32;1.55;;;;;;;17.28;43.00;96431.22;5051227;28;20411;-82
2021/09/30 13:45:02;;;;;;;4.47;1.50;;;;;;;17.59;41.95;96436.06;5046621;28;20052;-82
2021/09/30 13:47:29;;;;;;;2.85;1.45;;;;;;;16.99;44.65;96424.19;5050354;28;20045;-82
2021/09/30 13:49:58;;;;;;;3.75;1.60;;;;;;;16.41;43.42;96420.66;5038563;28;20791;-82
2021/09/30 13:52:25;;;;;;;6.50;1.75;;;;;;;16.03;44.66;96409.94;5052094;28;20044;-82
2021/09/30 13:54:51;;;;;;;6.13;1.58;;;;;;;15.54;46.93;96413.56;5047323;28;20037;-83
2021/09/30 13:57:16;;;;;;;4.80;1.50;;;;;;;14.96;48.28;96415.03;5048440;28;20052;-82
2021/09/30 13:59:43;;;;;;;4.13;1.48;;;;;;;14.98;48.54;96412.91;5060954;28;20114;-82
2021/09/30 14:02:08;;;;;;;6.43;1.60;;;;;;;15.16;48.37;96413.34;5049225;28;20609;-82
2021/09/30 14:04:35;;;;;;;3.83;1.70;;;;;;;15.28;49.08;96416.41;5048963;28;20068;-81
2021/09/30 14:07:05;;;;;;;4.40;1.50;;;;;;;15.03;48.54;96404.94;5043049;28;20045;-82
2021/09/30 14:09:34;;;;;;;4.10;1.75;;;;;;;14.98;47.58;96412.13;5050506;28;20498;-78
2021/09/30 14:12:02;;;;;;;4.45;1.33;;;;;;;14.87;48.41;96401.59;5048727;28;20041;-78
2021/09/30 14:14:28;;;;;;;3.72;1.58;;;;;;;14.56;49.19;96400.94;5049446;28;20052;-78
2021/09/30 14:16:53;;;;;;;5.70;1.67;;;;;;;14.83;49.24;96405.84;5049163;28;20407;-79
2021/09/30 14:19:20;;;;;;;4.38;1.50;;;;;;;14.77;47.60;96398.19;5049771;28;20764;-79
2021/09/30 14:21:46;;;;;;;6.13;1.65;;;;;;;14.64;51.08;96397.75;5049383;28;20041;-80
2021/09/30 14:24:12;;;;;;;5.63;1.63;;;;;;;14.77;47.85;96395.53;5045589;28;20117;-80
2021/09/30 14:26:38;;;;;;;4.80;1.60;;;;;;;14.86;48.17;96393.91;5039100;28;20120;-79
2021/09/30 14:29:04;;;;;;;4.68;1.40;;;;;;;14.84;50.18;96396.03;5049484;28;20041;-79
2021/09/30 14:31:30;;;;;;;4.97;1.48;;;;;;;14.94;49.98;96400.47;5050251;28;20086;-78
2021/09/30 14:33:56;;;;;;;3.53;1.63;;;;;;;14.95;47.16;96402.84;5034521;28;20034;-77
2021/09/30 14:36:22;;;;;;;3.08;1.50;;;;;;;14.76;50.88;96399.28;5045018;28;20049;-77
2021/09/30 14:38:47;;;;;;;7.40;1.80;;;;;;;14.76;50.12;96399.28;5050306;28;20154;-78